createdAt,value
2022-08-30T04:04:32.793Z,7.57
2022-08-30T04:07:35.932Z,8.00
2022-08-30T04:10:38.322Z,7.95
2022-08-30T04:13:40.672Z,7.72
2022-08-30T04:16:42.863Z,7.90
2022-08-30T04:19:45.246Z,7.65
2022-08-30T04:22:47.547Z,7.40
2022-08-30T04:25:49.861Z,7.00
2022-08-30T04:28:54.387Z,7.37
2022-08-30T04:31:56.806Z,7.32
2022-08-30T04:34:59.627Z,8.20
2022-08-30T04:38:02.973Z,8.00
2022-08-30T04:41:16.233Z,7.10
2022-08-30T04:44:19.662Z,7.35
2022-08-30T04:47:21.899Z,7.68
2022-08-30T04:50:24.247Z,7.35
2022-08-30T04:53:26.321Z,7.65
2022-08-30T04:56:28.649Z,7.30
2022-08-30T04:59:30.734Z,8.25
2022-08-30T05:02:33.130Z,7.72
2022-08-30T05:05:41.628Z,6.72
2022-08-30T05:08:46.202Z,7.60
2022-08-30T05:11:49.053Z,7.40
2022-08-30T05:14:51.798Z,7.45
2022-08-30T05:17:53.873Z,7.55
2022-08-30T05:21:13.452Z,7.20
2022-08-30T05:24:15.540Z,7.30
2022-08-30T05:27:17.890Z,7.57
2022-08-30T05:30:23.911Z,6.97
2022-08-30T05:33:26.841Z,7.03
2022-08-30T05:36:31.333Z,7.18
2022-08-30T05:39:44.905Z,6.93
2022-08-30T05:42:53.113Z,7.53
2022-08-30T05:46:03.790Z,7.22
2022-08-30T05:49:07.460Z,7.20
2022-08-30T05:52:09.794Z,6.62
2022-08-30T05:55:12.945Z,7.55
2022-08-30T05:58:15.808Z,6.53
2022-08-30T06:01:30.400Z,7.07
2022-08-30T06:04:32.773Z,7.25
2022-08-30T06:07:36.143Z,6.60
2022-08-30T06:10:39.105Z,6.65
2022-08-30T06:13:41.665Z,7.25
2022-08-30T06:16:45.908Z,7.30
2022-08-30T06:19:48.145Z,7.25
2022-08-30T06:22:50.525Z,6.68
2022-08-30T06:25:52.594Z,6.97
2022-08-30T06:28:56.136Z,6.90
2022-08-30T06:31:58.321Z,7.50
2022-08-30T06:35:00.793Z,7.57
2022-08-30T06:38:03.330Z,7.53
2022-08-30T06:41:11.553Z,6.90
2022-08-30T06:44:13.920Z,7.12
2022-08-30T06:47:16.798Z,6.37
2022-08-30T06:50:19.674Z,7.10
2022-08-30T06:53:22.701Z,6.82
2022-08-30T06:56:27.422Z,6.43
2022-08-30T06:59:31.146Z,6.47
2022-08-30T07:02:33.251Z,6.22
2022-08-30T07:05:35.602Z,6.43
2022-08-30T07:08:38.620Z,6.28
2022-08-30T07:11:41.464Z,6.18
2022-08-30T07:14:44.793Z,6.60
2022-08-30T07:18:06.579Z,6.40
2022-08-30T07:21:15.257Z,5.80
2022-08-30T07:24:19.367Z,5.95
2022-08-30T07:27:22.778Z,6.18
2022-08-30T07:30:25.360Z,4.93
2022-08-30T07:33:29.758Z,6.25
2022-08-30T07:36:33.408Z,5.63
2022-08-30T07:39:44.534Z,5.45
2022-08-30T07:42:51.518Z,5.05
2022-08-30T07:45:54.460Z,5.35
2022-08-30T07:48:59.504Z,4.80
2022-08-30T07:52:01.787Z,5.65
2022-08-30T07:55:05.118Z,5.37
2022-08-30T07:58:07.200Z,5.57
2022-08-30T08:01:11.839Z,5.12
2022-08-30T08:04:14.344Z,6.00
2022-08-30T08:07:16.646Z,5.80
2022-08-30T08:10:19.530Z,5.95
2022-08-30T08:13:21.695Z,6.10
2022-08-30T08:16:27.502Z,6.57
2022-08-30T08:22:31.758Z,6.28
2022-08-30T08:25:38.881Z,5.68
2022-08-30T08:28:42.531Z,5.22
2022-08-30T08:31:47.083Z,5.80
2022-08-30T08:34:49.701Z,5.78
2022-08-30T08:37:54.606Z,6.05
2022-08-30T08:41:06.038Z,5.93
2022-08-30T08:44:17.524Z,5.47
2022-08-30T08:47:46.408Z,6.15
2022-08-30T08:51:08.858Z,5.70
2022-08-30T08:54:16.110Z,5.57
2022-08-30T08:57:21.416Z,5.93
2022-08-30T09:00:26.581Z,5.85
2022-08-30T09:03:30.123Z,5.82
2022-08-30T09:06:51.214Z,6.32
2022-08-30T09:09:53.685Z,5.72
2022-08-30T09:12:59.926Z,6.50
2022-08-30T09:16:02.998Z,5.90
2022-08-30T09:19:05.550Z,5.78
2022-08-30T09:22:21.762Z,6.05
2022-08-30T09:25:32.568Z,5.32
2022-08-30T09:28:47.134Z,5.80
2022-08-30T09:32:10.229Z,5.45
2022-08-30T09:35:36.288Z,5.80
2022-08-30T09:38:38.709Z,6.32
2022-08-30T09:41:44.054Z,5.25
2022-08-30T09:44:46.592Z,6.37
2022-08-30T09:47:48.932Z,5.28
2022-08-30T09:51:04.006Z,5.00
2022-08-30T10:00:50.958Z,5.53
2022-08-30T10:04:09.444Z,6.00
2022-08-30T10:07:21.374Z,5.75
2022-08-30T10:10:46.167Z,5.47
2022-08-30T10:13:59.666Z,5.55
2022-08-30T10:17:12.597Z,5.80
2022-08-30T10:20:19.402Z,5.68
2022-08-30T10:23:36.310Z,5.32
2022-08-30T10:26:54.137Z,5.62
2022-08-30T10:30:02.660Z,5.90
2022-08-30T10:33:21.184Z,5.55
2022-08-30T10:36:31.784Z,5.18
2022-08-30T10:39:45.545Z,5.53
2022-08-30T10:42:50.928Z,5.75
2022-08-30T10:45:59.935Z,6.37
2022-08-30T10:49:06.476Z,5.68
2022-08-30T10:52:34.169Z,5.57
2022-08-30T10:55:49.437Z,5.50
2022-08-30T10:58:54.470Z,5.95
2022-08-30T11:02:18.454Z,6.33
2022-08-30T11:05:54.929Z,5.95
2022-08-30T11:09:14.256Z,5.70
2022-08-30T11:12:22.769Z,5.70
2022-08-30T11:15:32.945Z,6.00
2022-08-30T11:18:52.057Z,5.93
2022-08-30T11:22:16.245Z,5.65
2022-08-30T11:25:47.074Z,6.00
2022-08-30T11:28:59.190Z,5.87
2022-08-30T11:32:13.251Z,6.35
2022-08-30T11:35:47.316Z,5.97
2022-08-30T11:38:50.011Z,6.03
2022-08-30T11:42:30.565Z,7.75
2022-08-30T11:45:36.085Z,5.62
2022-08-30T11:48:47.061Z,6.00
2022-08-30T11:52:28.470Z,6.97
2022-08-30T11:55:46.409Z,6.00
2022-08-30T11:58:57.724Z,5.90
2022-08-30T12:02:01.500Z,5.95
2022-08-30T12:05:04.546Z,6.25
2022-08-30T12:08:38.445Z,6.53
2022-08-30T12:12:05.873Z,6.05
2022-08-30T12:15:28.152Z,5.55
2022-08-30T12:18:38.953Z,5.60
2022-08-30T12:21:44.694Z,6.65
2022-08-30T12:24:51.710Z,6.13
2022-08-30T12:28:13.998Z,5.47
2022-08-30T12:31:22.425Z,6.00
2022-08-30T12:34:50.043Z,6.30
2022-08-30T12:37:59.628Z,5.70
2022-08-30T12:41:02.917Z,5.37
2022-08-30T12:44:15.308Z,7.70
2022-08-30T12:47:23.462Z,6.30
2022-08-30T12:50:31.415Z,5.15
2022-08-30T12:53:42.662Z,5.70
2022-08-30T12:57:19.161Z,6.60
2022-08-30T13:00:38.344Z,6.45
2022-08-30T13:03:41.881Z,8.00
2022-08-30T13:06:52.640Z,5.60
2022-08-30T13:10:19.895Z,5.53
2022-08-30T13:13:44.810Z,5.43
2022-08-30T13:16:47.890Z,5.60
2022-08-30T13:20:17.629Z,5.57
2022-08-30T13:23:24.446Z,5.65
2022-08-30T13:26:27.590Z,5.70
2022-08-30T13:29:29.913Z,5.95
2022-08-30T13:32:38.963Z,6.37
2022-08-30T13:35:42.496Z,5.20
2022-08-30T13:38:44.843Z,5.32
2022-08-30T13:41:47.215Z,5.47
2022-08-30T13:44:49.322Z,5.35
2022-08-30T13:47:51.686Z,6.15
2022-08-30T13:50:55.291Z,8.07
2022-08-30T13:53:58.203Z,6.85
2022-08-30T13:57:00.745Z,5.85
2022-08-30T14:00:09.600Z,6.00
2022-08-30T14:03:15.318Z,6.95
2022-08-30T14:06:32.722Z,6.10
2022-08-30T14:09:36.520Z,6.03
2022-08-30T14:12:58.859Z,6.40
2022-08-30T14:19:25.310Z,6.18
2022-08-30T14:22:27.409Z,6.15
2022-08-30T14:25:29.777Z,6.82
2022-08-30T14:28:32.719Z,5.30
2022-08-30T14:31:35.378Z,5.90
2022-08-30T14:34:37.497Z,5.45
2022-08-30T14:37:39.823Z,6.07
2022-08-30T14:40:42.334Z,5.82
2022-08-30T14:43:45.489Z,5.60
2022-08-30T14:46:48.809Z,5.85
2022-08-30T14:49:53.434Z,5.60
